createdAt,value
2023-05-05T04:16:39.169Z,100396.81
2023-05-05T04:17:43.205Z,100394.16
2023-05-05T04:18:45.258Z,100395.72
2023-05-05T04:19:47.068Z,100401.69
2023-05-05T04:20:51.313Z,100404.34
2023-05-05T04:21:53.119Z,100395.78
2023-05-05T04:22:55.701Z,100397.31
2023-05-05T04:23:58.959Z,100400.66
2023-05-05T04:25:02.614Z,100400.50
2023-05-05T04:26:04.762Z,100401.19
2023-05-05T04:27:06.690Z,100408.84
2023-05-05T04:28:09.252Z,100404.66
2023-05-05T04:29:11.623Z,100400.34
2023-05-05T04:30:13.952Z,100405.78
2023-05-05T04:31:16.775Z,100408.81
2023-05-05T04:32:20.160Z,100411.81
2023-05-05T04:33:23.297Z,100411.34
2023-05-05T04:34:25.902Z,100403.56
2023-05-05T04:35:33.055Z,100415.63
2023-05-05T04:36:36.382Z,100409.88
2023-05-05T04:37:39.028Z,100406.44
2023-05-05T04:38:41.113Z,100409.47
2023-05-05T04:39:43.051Z,100413.56
2023-05-05T04:40:45.392Z,100415.66
2023-05-05T04:41:47.528Z,100415.75
2023-05-05T04:42:57.080Z,100422.34
2023-05-05T04:44:00.359Z,100425.59
2023-05-05T04:45:04.243Z,100416.59
2023-05-05T04:46:06.790Z,100424.50
2023-05-05T04:47:12.569Z,100414.47
2023-05-05T04:48:16.164Z,100423.31
2023-05-05T04:49:18.160Z,100420.94
2023-05-05T04:50:21.192Z,100426.66
2023-05-05T04:51:23.452Z,100422.56
2023-05-05T04:52:25.315Z,100433.28
2023-05-05T04:53:27.145Z,100429.13
2023-05-05T04:54:29.348Z,100424.50
2023-05-05T04:55:31.454Z,100435.53
2023-05-05T04:56:33.302Z,100431.94
2023-05-05T04:57:35.163Z,100441.47
2023-05-05T04:58:37.110Z,100440.75
2023-05-05T04:59:39.031Z,100431.59
2023-05-05T05:00:41.330Z,100436.63
2023-05-05T05:01:43.142Z,100434.81
2023-05-05T05:02:45.191Z,100438.75
2023-05-05T05:03:47.166Z,100441.31
2023-05-05T05:04:49.401Z,100432.63
2023-05-05T05:05:52.326Z,100441.72
2023-05-05T05:06:56.900Z,100447.66
2023-05-05T05:08:01.140Z,100439.88
2023-05-05T05:09:03.745Z,100441.63
2023-05-05T05:10:07.404Z,100436.34
2023-05-05T05:11:09.757Z,100448.63
2023-05-05T05:12:11.778Z,100452.78
2023-05-05T05:13:13.928Z,100439.44
2023-05-05T05:14:15.932Z,100448.38
2023-05-05T05:15:24.253Z,100450.56
2023-05-05T05:16:26.953Z,100455.66
2023-05-05T05:17:30.531Z,100453.81
2023-05-05T05:18:33.722Z,100454.72
2023-05-05T05:19:35.957Z,100455.44
2023-05-05T05:20:40.477Z,100467.38
2023-05-05T05:21:42.881Z,100457.28
2023-05-05T05:22:45.069Z,100460.97
2023-05-05T05:23:52.853Z,100454.63
2023-05-05T05:24:56.246Z,100458.34
2023-05-05T05:25:59.751Z,100463.56
2023-05-05T05:27:02.827Z,100454.50
2023-05-05T05:28:09.588Z,100467.75
2023-05-05T05:29:16.816Z,100455.47
2023-05-05T05:30:22.750Z,100464.31
2023-05-05T05:31:25.667Z,100457.28
2023-05-05T05:32:27.995Z,100468.56
2023-05-05T05:33:30.415Z,100466.91
2023-05-05T05:34:34.250Z,100460.13
2023-05-05T05:35:42.476Z,100457.53
2023-05-05T05:36:45.461Z,100458.34
2023-05-05T05:37:47.844Z,100452.78
2023-05-05T05:38:49.993Z,100463.38
2023-05-05T05:39:52.630Z,100459.00
2023-05-05T05:40:59.174Z,100465.44
2023-05-05T05:42:03.471Z,100459.22
2023-05-05T05:43:05.756Z,100463.25
2023-05-05T05:44:08.834Z,100457.41
2023-05-05T05:45:14.454Z,100461.56
2023-05-05T05:46:16.872Z,100450.66
2023-05-05T05:47:19.322Z,100454.34
2023-05-05T05:48:22.287Z,100453.00
2023-05-05T05:49:25.592Z,100456.28
2023-05-05T05:50:28.817Z,100457.50
2023-05-05T05:51:33.042Z,100456.69
2023-05-05T05:52:39.492Z,100459.69
2023-05-05T05:53:42.101Z,100456.22
2023-05-05T05:54:44.809Z,100451.63
2023-05-05T05:55:49.649Z,100453.94
2023-05-05T05:56:55.405Z,100450.81
2023-05-05T05:57:58.568Z,100457.56
2023-05-05T05:59:02.622Z,100455.56
2023-05-05T06:00:05.811Z,100458.38
2023-05-05T06:01:16.154Z,100454.38
2023-05-05T06:02:19.373Z,100455.13
2023-05-05T06:03:24.311Z,100450.75
2023-05-05T11:16:03.382Z,100605.53
2023-05-05T11:17:47.267Z,100599.50
2023-05-05T11:18:49.986Z,100603.31
2023-05-05T12:03:23.458Z,100603.81
2023-05-05T12:04:42.344Z,100605.94
2023-05-05T12:05:48.814Z,100607.44
2023-05-05T12:38:51.431Z,100595.13
2023-05-05T12:40:01.178Z,100596.88
2023-05-05T12:41:05.263Z,100598.56
2023-05-05T12:46:13.164Z,100601.03
2023-05-05T15:54:05.359Z,100570.94
2023-05-05T15:55:22.669Z,100566.31
2023-05-05T15:59:51.684Z,100562.72
2023-05-05T16:01:13.832Z,100576.97
2023-05-05T16:12:28.570Z,100576.47
2023-05-05T16:14:52.593Z,100581.44
2023-05-05T16:16:29.153Z,100581.69
2023-05-05T16:18:05.524Z,100582.03
2023-05-05T16:19:19.688Z,100583.03
2023-05-05T16:20:31.979Z,100581.97
2023-05-05T16:21:46.514Z,100583.03
2023-05-05T16:24:06.792Z,100580.66
2023-05-05T17:47:16.981Z,100586.56
2023-05-05T17:48:53.234Z,100582.44
2023-05-05T17:50:00.669Z,100583.59
2023-05-05T17:51:22.980Z,100584.03
2023-05-05T17:52:27.777Z,100579.47
2023-05-05T17:54:25.761Z,100584.03
2023-05-05T17:55:34.368Z,100585.63
2023-05-05T17:56:44.962Z,100588.75
2023-05-05T18:01:24.974Z,100586.91
2023-05-05T18:02:43.380Z,100592.41
2023-05-05T18:04:12.502Z,100593.22
2023-05-05T18:05:17.723Z,100597.34
2023-05-05T18:06:32.653Z,100592.16
2023-05-05T18:07:40.081Z,100595.28
2023-05-05T18:10:24.944Z,100598.59
2023-05-05T18:11:31.150Z,100597.13
2023-05-05T18:12:37.278Z,100599.88
2023-05-05T19:06:13.492Z,100598.28
2023-05-05T19:07:33.735Z,100593.75
2023-05-05T19:08:52.372Z,100600.94
2023-05-05T19:09:56.015Z,100598.53
2023-05-05T19:16:21.707Z,100593.00
2023-05-05T19:28:54.749Z,100599.75
2023-05-05T19:29:59.631Z,100592.66
2023-05-05T19:31:33.616Z,100583.28
2023-05-05T19:34:50.983Z,100590.03
2023-05-05T19:36:18.693Z,100586.03
2023-05-05T19:37:49.794Z,100589.59
2023-05-05T19:39:35.483Z,100589.59
2023-05-05T19:40:41.490Z,100592.13
2023-05-05T19:41:46.763Z,100587.31
2023-05-05T19:42:53.809Z,100590.03
2023-05-05T19:45:04.781Z,100586.16
2023-05-05T19:50:31.903Z,100593.00
2023-05-05T19:51:41.426Z,100587.00
2023-05-05T19:52:49.837Z,100592.84
2023-05-05T20:02:17.404Z,100596.81
